Time;durP1;ratioP1;P1;durP2;ratioP2;P2;SDS_P1;SDS_P2;PMS_P1;PMS_P2;Temp;Humidity;BMP_temperature;BMP_pressure;BME280_temperature;BME280_humidity;BME280_pressure;Samples;Min_cycle;Max_cycle;Signal;HPM_P1;HPM_P2
2023/01/24 00:00:38;;;;;;;19.10;11.07;;;2.10;99.90;;;;;;5016144;28;20122;-69
2023/01/24 00:03:04;;;;;;;20.73;11.57;;;2.10;99.90;;;;;;5015907;28;20385;-69
2023/01/24 00:05:29;;;;;;;22.13;11.52;;;2.10;99.90;;;;;;5017943;28;20062;-69
2023/01/24 00:07:55;;;;;;;22.40;11.35;;;2.10;99.90;;;;;;5035746;28;20373;-69
2023/01/24 00:10:22;;;;;;;25.08;12.43;;;2.10;99.90;;;;;;5035197;28;20033;-70
2023/01/24 00:12:47;;;;;;;35.33;14.63;;;2.10;99.90;;;;;;5034703;28;20576;-69
2023/01/24 00:15:13;;;;;;;32.65;14.60;;;2.00;99.90;;;;;;5029976;28;20120;-69
2023/01/24 00:17:38;;;;;;;25.17;13.43;;;2.10;99.90;;;;;;5034712;28;20031;-69
2023/01/24 00:20:05;;;;;;;21.40;11.63;;;2.10;99.90;;;;;;5036270;28;20065;-70
2023/01/24 00:22:31;;;;;;;25.63;12.05;;;2.10;99.90;;;;;;5031372;28;20052;-69
2023/01/24 00:24:56;;;;;;;23.63;12.23;;;2.10;99.90;;;;;;5054803;28;20017;-69
2023/01/24 00:27:22;;;;;;;20.92;11.55;;;2.10;99.90;;;;;;5037443;28;20385;-69
2023/01/24 00:29:48;;;;;;;24.25;12.50;;;2.10;99.90;;;;;;5051460;28;20476;-69
2023/01/24 00:32:13;;;;;;;23.58;14.93;;;2.20;99.90;;;;;;5054939;28;20036;-69
2023/01/24 00:34:39;;;;;;;29.50;16.33;;;2.20;99.90;;;;;;5054216;28;20090;-69
2023/01/24 00:37:04;;;;;;;31.20;15.77;;;2.20;99.90;;;;;;5040088;28;20558;-69
2023/01/24 00:39:30;;;;;;;31.92;16.50;;;2.20;99.90;;;;;;5035200;28;20026;-70
2023/01/24 00:41:55;;;;;;;26.52;14.55;;;2.10;99.90;;;;;;5034841;28;20421;-70
2023/01/24 00:44:21;;;;;;;28.40;15.70;;;2.10;99.90;;;;;;5034833;28;20064;-70
2023/01/24 00:46:46;;;;;;;27.77;14.75;;;2.10;99.90;;;;;;5038082;28;20033;-69
2023/01/24 00:49:12;;;;;;;29.10;15.55;;;2.10;99.90;;;;;;5014966;28;20041;-69
2023/01/24 00:51:37;;;;;;;25.65;15.98;;;2.10;99.90;;;;;;5014820;28;20034;-69
2023/01/24 00:54:03;;;;;;;25.83;15.55;;;2.10;99.90;;;;;;5041474;28;20021;-69
2023/01/24 00:56:28;;;;;;;30.50;15.30;;;2.10;99.90;;;;;;5050129;28;20488;-69
2023/01/24 00:58:54;;;;;;;29.60;16.23;;;2.10;99.90;;;;;;5034772;28;20025;-69
2023/01/24 01:01:19;;;;;;;24.63;15.18;;;2.10;99.90;;;;;;5034410;28;20370;-69
2023/01/24 01:03:45;;;;;;;34.60;17.05;;;2.10;99.90;;;;;;5034448;28;20030;-69
2023/01/24 01:06:13;;;;;;;27.88;15.68;;;2.10;99.90;;;;;;5034551;28;20025;-69
2023/01/24 01:08:39;;;;;;;38.55;20.75;;;2.10;99.90;;;;;;5033133;28;20029;-69
2023/01/24 01:11:05;;;;;;;28.52;17.92;;;2.10;99.90;;;;;;5035522;28;20029;-69
2023/01/24 01:13:31;;;;;;;34.03;15.85;;;2.10;99.90;;;;;;5054738;28;20469;-69
2023/01/24 01:16:23;;;;;;;31.92;16.00;;;2.10;99.90;;;;;;5052906;28;20044;-70
2023/01/24 01:18:52;;;;;;;31.10;15.60;;;2.10;99.90;;;;;;5051908;28;20041;-69
2023/01/24 01:21:21;;;;;;;27.70;14.63;;;2.10;99.90;;;;;;5053946;28;20025;-69
2023/01/24 01:23:46;;;;;;;32.95;14.68;;;2.10;99.90;;;;;;5054316;28;20017;-70
2023/01/24 01:26:19;;;;;;;30.27;14.63;;;2.10;99.90;;;;;;5047170;28;20025;-69
2023/01/24 01:28:45;;;;;;;32.20;17.17;;;2.10;99.90;;;;;;5053386;28;20447;-69
2023/01/24 01:31:11;;;;;;;29.73;16.50;;;2.10;99.90;;;;;;5053893;28;20025;-69
2023/01/24 01:33:37;;;;;;;29.52;16.45;;;2.00;99.90;;;;;;5053637;28;20078;-70
2023/01/24 01:36:03;;;;;;;28.90;16.02;;;2.10;99.90;;;;;;5048494;28;20519;-69
2023/01/24 01:38:29;;;;;;;37.63;17.38;;;2.00;99.90;;;;;;5033831;28;20523;-69
2023/01/24 01:40:55;;;;;;;33.05;17.48;;;2.00;99.90;;;;;;5033928;28;20025;-69
2023/01/24 01:43:23;;;;;;;42.60;18.30;;;2.00;99.90;;;;;;5033755;28;20104;-69
2023/01/24 01:45:52;;;;;;;23.73;13.27;;;2.00;99.90;;;;;;5034609;28;20495;-69
2023/01/24 01:48:36;;;;;;;23.58;13.38;;;2.00;99.90;;;;;;5033587;28;20396;-69
2023/01/24 01:51:13;;;;;;;;;;;2.00;99.90;;;;;;5033973;28;20021;-69
2023/01/24 01:53:48;;;;;;;24.75;13.93;;;2.00;99.90;;;;;;5033650;28;19905;-69
2023/01/24 01:56:40;;;;;;;29.63;16.58;;;2.00;99.90;;;;;;5041734;28;20508;-69
2023/01/24 01:59:24;;;;;;;35.22;17.13;;;2.00;99.90;;;;;;5053091;28;20381;-69
2023/01/24 02:01:51;;;;;;;29.75;16.17;;;2.00;99.90;;;;;;5053278;28;20024;-69
2023/01/24 02:04:43;;;;;;;27.27;14.90;;;2.00;99.90;;;;;;5053237;28;20125;-69
2023/01/24 02:07:20;;;;;;;31.63;16.42;;;2.00;99.90;;;;;;5024696;28;20076;-69
2023/01/24 02:09:48;;;;;;;39.10;16.00;;;2.00;99.90;;;;;;5030605;28;20452;-69
2023/01/24 02:12:29;;;;;;;31.88;16.50;;;2.00;99.90;;;;;;5033091;28;20461;-69
2023/01/24 02:17:43;;;;;;;26.30;15.35;;;2.00;99.90;;;;;;5033662;28;20044;-69
2023/01/24 02:20:26;;;;;;;24.35;13.77;;;2.00;99.90;;;;;;5033765;28;20075;-69
2023/01/24 02:23:20;;;;;;;15.10;10.13;;;2.00;99.90;;;;;;5033749;28;20439;-69
2023/01/24 02:26:01;;;;;;;;;;;2.00;99.90;;;;;;5015089;28;20433;-69
2023/01/24 02:28:27;;;;;;;21.75;11.88;;;2.00;99.90;;;;;;5036673;28;19905;-69
2023/01/24 02:30:56;;;;;;;23.33;12.80;;;2.00;99.90;;;;;;5033280;28;20030;-69
2023/01/24 02:33:22;;;;;;;20.05;11.13;;;2.00;99.90;;;;;;5039819;28;20040;-69
2023/01/24 02:35:48;;;;;;;19.02;11.40;;;2.00;99.90;;;;;;5048216;28;20033;-69
2023/01/24 02:38:33;;;;;;;21.55;12.77;;;2.00;99.90;;;;;;5033090;28;20373;-69
2023/01/24 02:41:06;;;;;;;21.05;12.20;;;2.00;99.90;;;;;;5034792;28;20040;-70
2023/01/24 02:43:36;;;;;;;16.03;9.03;;;2.00;99.90;;;;;;5053204;28;20064;-69
2023/01/24 02:46:02;;;;;;;17.33;9.45;;;2.00;99.90;;;;;;5046382;28;20030;-69
2023/01/24 02:48:27;;;;;;;16.25;8.80;;;2.00;99.90;;;;;;5033539;28;20120;-69
2023/01/24 02:53:57;;;;;;;22.15;9.70;;;2.10;99.90;;;;;;5011272;28;20589;-69
2023/01/24 02:59:06;;;;;;;15.93;9.15;;;2.10;99.90;;;;;;5016099;28;20076;-69
2023/01/24 03:01:32;;;;;;;17.65;9.45;;;2.10;99.90;;;;;;5032785;28;20464;-69
2023/01/24 03:03:58;;;;;;;17.33;9.73;;;2.10;99.90;;;;;;5033193;28;20064;-69
2023/01/24 03:06:23;;;;;;;16.67;10.00;;;2.00;99.90;;;;;;5033802;28;20032;-69
2023/01/24 03:08:49;;;;;;;18.75;10.27;;;2.00;99.90;;;;;;5032792;28;20014;-69
2023/01/24 03:11:14;;;;;;;17.70;10.93;;;2.00;99.90;;;;;;5032665;28;20092;-69
2023/01/24 03:35:35;;;;;;;15.88;8.52;;;2.00;99.90;;;;;;5036456;28;20037;-69
2023/01/24 03:40:45;;;;;;;14.98;8.90;;;2.10;99.90;;;;;;5036528;28;20035;-69
2023/01/24 03:43:11;;;;;;;13.25;7.88;;;2.10;99.90;;;;;;5018747;28;20104;-69
2023/01/24 03:45:39;;;;;;;18.33;10.32;;;2.10;99.90;;;;;;5017647;28;20416;-69
2023/01/24 03:48:12;;;;;;;17.02;10.45;;;2.10;99.90;;;;;;5034664;28;20033;-70
2023/01/24 03:53:25;;;;;;;13.05;8.80;;;2.10;99.90;;;;;;5016679;28;19921;-69
2023/01/24 03:55:52;;;;;;;15.30;7.13;;;2.00;99.90;;;;;;5030337;28;20404;-69
2023/01/24 03:58:18;;;;;;;15.88;9.30;;;2.00;99.90;;;;;;5030871;28;20029;-69
2023/01/24 04:00:44;;;;;;;14.45;7.95;;;2.10;99.90;;;;;;5034792;28;20384;-69
2023/01/24 04:03:09;;;;;;;16.30;9.80;;;2.10;99.90;;;;;;5035845;28;20022;-69
2023/01/24 04:05:35;;;;;;;18.40;10.50;;;2.10;99.90;;;;;;5056744;28;20025;-69
2023/01/24 04:08:01;;;;;;;17.67;9.02;;;2.10;99.90;;;;;;5032644;28;20033;-69
2023/01/24 04:10:27;;;;;;;14.70;8.57;;;2.10;99.90;;;;;;5035677;28;20038;-69
2023/01/24 04:12:53;;;;;;;16.88;9.30;;;2.10;99.90;;;;;;5034045;28;20033;-69
2023/01/24 04:15:22;;;;;;;16.50;9.68;;;2.10;99.90;;;;;;5035572;28;20033;-69
2023/01/24 04:17:48;;;;;;;13.10;9.20;;;2.10;99.90;;;;;;5035515;28;20033;-69
2023/01/24 04:20:14;;;;;;;17.23;10.15;;;2.00;99.90;;;;;;5035234;28;20075;-69
2023/01/24 04:22:40;;;;;;;18.77;10.82;;;2.00;99.90;;;;;;5021059;28;20022;-69
2023/01/24 04:25:06;;;;;;;16.30;10.38;;;2.00;99.90;;;;;;5016095;28;20110;-69
2023/01/24 04:27:31;;;;;;;16.40;9.88;;;2.00;99.90;;;;;;5033828;28;20021;-69
2023/01/24 04:29:57;;;;;;;17.77;10.95;;;2.00;99.90;;;;;;5029829;28;20358;-69
2023/01/24 04:32:22;;;;;;;18.20;11.32;;;2.00;99.90;;;;;;5035678;28;20044;-69
2023/01/24 04:34:48;;;;;;;28.48;11.50;;;2.00;99.90;;;;;;5031640;28;20056;-69
2023/01/24 04:37:13;;;;;;;18.33;11.95;;;2.00;99.90;;;;;;5037468;28;20103;-69
2023/01/24 04:39:39;;;;;;;22.10;12.65;;;2.00;99.90;;;;;;5052737;28;20465;-69
2023/01/24 04:42:05;;;;;;;23.50;12.80;;;2.00;99.90;;;;;;5053578;28;20116;-70
2023/01/24 04:44:32;;;;;;;23.35;13.05;;;2.00;99.90;;;;;;5040312;28;20071;-69
2023/01/24 04:46:59;;;;;;;20.63;11.98;;;2.00;99.90;;;;;;5047429;28;20082;-69
2023/01/24 04:49:25;;;;;;;22.38;12.10;;;2.00;99.90;;;;;;5054757;28;20459;-70
2023/01/24 04:51:50;;;;;;;26.67;14.57;;;2.00;99.90;;;;;;5040355;28;20037;-69
2023/01/24 04:54:16;;;;;;;24.10;14.15;;;2.00;99.90;;;;;;5048055;28;20056;-69
2023/01/24 04:56:42;;;;;;;26.67;14.95;;;2.00;99.90;;;;;;5041348;28;20512;-69
2023/01/24 04:59:11;;;;;;;26.95;13.77;;;2.00;99.90;;;;;;5052743;28;20108;-69
2023/01/24 05:01:37;;;;;;;30.70;16.95;;;2.00;99.90;;;;;;5054422;28;20074;-69
2023/01/24 05:04:02;;;;;;;24.63;14.65;;;2.00;99.90;;;;;;5054434;28;20021;-69
2023/01/24 05:06:30;;;;;;;25.27;14.27;;;2.00;99.90;;;;;;5043388;28;20473;-70
2023/01/24 05:08:56;;;;;;;24.52;14.25;;;2.00;99.90;;;;;;5034743;28;20485;-69
2023/01/24 05:11:22;;;;;;;28.00;15.57;;;2.00;99.90;;;;;;5034132;28;20040;-69
2023/01/24 05:13:48;;;;;;;26.15;15.25;;;2.00;99.90;;;;;;5037117;28;20032;-69
2023/01/24 05:16:14;;;;;;;27.42;15.52;;;2.10;99.90;;;;;;5045696;28;20036;-69
2023/01/24 05:18:40;;;;;;;26.98;15.13;;;2.00;99.90;;;;;;5034164;28;20156;-69
2023/01/24 05:21:13;;;;;;;24.92;14.18;;;2.10;99.90;;;;;;5034158;28;20053;-69
2023/01/24 05:23:39;;;;;;;;;;;2.10;99.90;;;;;;5034226;28;20053;-69
2023/01/24 05:26:05;;;;;;;22.80;12.57;;;2.10;99.90;;;;;;5026562;28;19944;-69
2023/01/24 05:28:31;;;;;;;26.23;14.65;;;2.00;99.90;;;;;;5054195;28;20094;-69
2023/01/24 05:31:07;;;;;;;27.10;16.00;;;2.00;99.90;;;;;;5053923;28;20399;-69
2023/01/24 05:33:32;;;;;;;24.33;15.68;;;2.00;99.90;;;;;;5054129;28;20021;-70
2023/01/24 05:36:05;;;;;;;34.53;16.63;;;2.00;99.90;;;;;;5046200;28;20041;-69
2023/01/24 05:38:31;;;;;;;29.77;16.98;;;2.00;99.90;;;;;;5034066;28;20021;-69
2023/01/24 05:41:06;;;;;;;29.42;15.70;;;2.00;99.90;;;;;;5034408;28;20033;-69
2023/01/24 05:43:32;;;;;;;24.20;14.40;;;2.00;99.90;;;;;;5054357;28;20476;-69
2023/01/24 05:46:00;;;;;;;24.27;15.15;;;2.00;99.90;;;;;;5047093;28;20451;-69
2023/01/24 05:48:25;;;;;;;22.10;14.00;;;2.00;99.90;;;;;;5033765;28;20431;-69
2023/01/24 05:51:00;;;;;;;24.10;13.90;;;2.00;99.90;;;;;;5048412;22;20041;-69
2023/01/24 05:53:27;;;;;;;25.45;14.63;;;2.00;99.90;;;;;;5053665;28;20025;-69
2023/01/24 05:56:01;;;;;;;26.17;14.95;;;2.00;99.90;;;;;;5051370;28;20064;-69
2023/01/24 05:58:34;;;;;;;26.17;14.65;;;2.00;99.90;;;;;;5033465;28;20034;-69
2023/01/24 06:00:59;;;;;;;28.02;17.35;;;2.00;99.90;;;;;;5044544;28;20032;-69
2023/01/24 06:03:25;;;;;;;28.60;15.93;;;2.00;99.90;;;;;;5053404;28;20025;-69
2023/01/24 06:05:53;;;;;;;23.27;14.82;;;2.00;99.90;;;;;;5053783;28;20028;-69
2023/01/24 06:08:20;;;;;;;26.55;15.25;;;2.00;99.90;;;;;;5068706;28;20412;-69
2023/01/24 06:10:46;;;;;;;27.52;15.95;;;2.00;99.90;;;;;;5053439;28;20033;-69
2023/01/24 06:13:12;;;;;;;28.90;17.98;;;2.00;99.90;;;;;;5053242;28;20027;-69
2023/01/24 06:15:38;;;;;;;28.80;16.42;;;2.00;99.90;;;;;;5051912;28;20100;-69
2023/01/24 06:18:10;;;;;;;29.23;15.70;;;2.00;99.90;;;;;;5052871;28;20032;-69
2023/01/24 06:20:37;;;;;;;29.05;16.67;;;2.00;99.90;;;;;;5052989;28;20357;-69
2023/01/24 06:23:09;;;;;;;23.70;15.23;;;2.00;99.90;;;;;;5050074;28;20025;-69
2023/01/24 06:25:35;;;;;;;24.42;15.55;;;2.00;99.90;;;;;;5035769;28;20075;-69
2023/01/24 06:28:01;;;;;;;30.52;17.30;;;2.00;99.90;;;;;;5053341;28;20021;-69
2023/01/24 06:30:27;;;;;;;28.10;16.05;;;2.00;99.90;;;;;;5060238;28;20025;-69
2023/01/24 06:33:13;;;;;;;25.52;15.85;;;2.00;99.90;;;;;;5073362;28;20036;-69
2023/01/24 06:36:06;;;;;;;26.33;16.05;;;1.90;99.90;;;;;;5070252;28;20090;-69
2023/01/24 06:38:32;;;;;;;25.70;14.63;;;2.00;99.90;;;;;;5053207;28;20036;-69
2023/01/24 06:41:01;;;;;;;29.20;16.13;;;2.00;99.90;;;;;;5052853;28;20107;-69
2023/01/24 06:43:27;;;;;;;24.80;15.38;;;2.00;99.90;;;;;;5052942;28;20029;-69
2023/01/24 06:45:53;;;;;;;26.63;16.55;;;2.00;99.90;;;;;;5056825;28;20017;-69
2023/01/24 06:48:19;;;;;;;28.02;15.82;;;2.00;99.90;;;;;;5072970;28;20448;-69
2023/01/24 06:50:44;;;;;;;29.13;16.73;;;2.00;99.90;;;;;;5072934;28;20056;-69
2023/01/24 06:53:10;;;;;;;26.45;16.08;;;2.00;99.90;;;;;;5072889;28;20090;-69
2023/01/24 06:55:36;;;;;;;26.27;15.25;;;2.00;99.90;;;;;;5071661;28;20105;-69
2023/01/24 06:58:02;;;;;;;26.50;16.27;;;2.10;99.90;;;;;;5056855;28;20562;-69
2023/01/24 07:00:29;;;;;;;26.17;15.43;;;2.10;99.90;;;;;;5072147;28;20021;-69
2023/01/24 07:03:02;;;;;;;27.15;16.42;;;2.10;99.90;;;;;;5056626;28;20021;-69
2023/01/24 07:05:28;;;;;;;;;;;2.10;99.90;;;;;;5057103;28;20025;-69
2023/01/24 07:07:54;;;;;;;26.13;16.55;;;2.10;99.90;;;;;;5056646;28;20007;-69
2023/01/24 07:10:20;;;;;;;22.63;13.07;;;2.00;99.90;;;;;;5056818;28;20071;-69
2023/01/24 07:12:47;;;;;;;19.02;11.02;;;2.00;99.90;;;;;;5056824;28;20051;-69
2023/01/24 07:15:13;;;;;;;24.08;13.88;;;2.10;99.90;;;;;;5056631;28;20108;-69
2023/01/24 07:17:38;;;;;;;20.92;13.77;;;2.10;99.90;;;;;;5056535;28;20503;-69
2023/01/24 07:20:05;;;;;;;25.50;14.40;;;2.10;99.90;;;;;;5071759;28;20024;-69
2023/01/24 07:22:30;;;;;;;22.10;14.40;;;2.10;99.90;;;;;;5070238;28;20024;-69
2023/01/24 07:24:56;;;;;;;27.92;15.75;;;2.10;99.90;;;;;;5076279;28;20146;-70
2023/01/24 07:27:22;;;;;;;18.75;12.50;;;2.10;99.90;;;;;;5059932;28;20093;-70
2023/01/24 07:29:48;;;;;;;16.45;10.85;;;2.10;99.90;;;;;;5056257;28;20527;-69
2023/01/24 07:32:13;;;;;;;21.42;13.27;;;2.10;99.90;;;;;;5056425;28;20503;-69
2023/01/24 07:34:39;;;;;;;25.20;13.93;;;2.00;99.90;;;;;;5056125;28;20044;-69
2023/01/24 07:37:08;;;;;;;21.80;13.05;;;2.10;99.90;;;;;;5059096;28;20025;-69
2023/01/24 07:39:34;;;;;;;21.13;12.93;;;2.10;99.90;;;;;;5056123;28;20029;-69
2023/01/24 07:41:59;;;;;;;24.42;14.20;;;2.10;99.90;;;;;;5055989;28;20127;-69
2023/01/24 07:44:25;;;;;;;21.40;13.05;;;2.10;99.90;;;;;;5055966;28;20035;-69
2023/01/24 07:46:51;;;;;;;26.45;15.90;;;2.10;99.90;;;;;;5068898;28;20107;-69
2023/01/24 07:49:16;;;;;;;26.40;16.23;;;2.20;99.90;;;;;;5056192;28;20108;-69
2023/01/24 07:51:42;;;;;;;31.73;17.45;;;2.20;99.90;;;;;;5054834;28;20423;-69
2023/01/24 07:54:08;;;;;;;26.85;15.45;;;2.20;99.90;;;;;;5071856;28;20064;-69
2023/01/24 07:56:33;;;;;;;23.55;14.55;;;2.20;99.90;;;;;;5057135;28;20466;-69
2023/01/24 07:58:59;;;;;;;34.28;17.05;;;2.20;99.90;;;;;;5055487;28;20031;-69
2023/01/24 08:01:26;;;;;;;23.95;12.05;;;2.20;99.90;;;;;;5062521;28;20028;-69
2023/01/24 08:03:58;;;;;;;24.92;13.63;;;2.20;99.90;;;;;;5053887;28;20017;-69
2023/01/24 08:06:24;;;;;;;21.50;13.43;;;2.20;99.90;;;;;;5057547;28;20009;-69
2023/01/24 08:08:50;;;;;;;22.60;14.32;;;2.30;99.90;;;;;;5074780;28;20373;-69
2023/01/24 08:11:17;;;;;;;22.17;14.05;;;2.30;99.90;;;;;;5075312;28;20162;-69
2023/01/24 08:13:46;;;;;;;23.75;13.95;;;2.30;99.90;;;;;;5075510;28;20476;-69
2023/01/24 08:16:11;;;;;;;28.95;15.85;;;2.30;99.90;;;;;;5067173;28;20036;-69
2023/01/24 08:18:38;;;;;;;26.08;16.27;;;2.40;99.90;;;;;;5055526;28;20033;-69
2023/01/24 08:21:04;;;;;;;34.15;19.00;;;2.40;99.90;;;;;;5053978;28;20032;-69
2023/01/24 08:23:30;;;;;;;30.13;18.23;;;2.40;99.90;;;;;;5055386;28;20060;-69
2023/01/24 08:26:00;;;;;;;35.03;19.27;;;2.40;99.90;;;;;;5057096;28;20095;-69
2023/01/24 08:28:26;;;;;;;30.40;17.58;;;2.40;99.90;;;;;;5075208;28;20074;-69
2023/01/24 08:30:51;;;;;;;30.95;18.02;;;2.50;99.90;;;;;;5075008;28;20036;-69
2023/01/24 08:33:18;;;;;;;30.75;18.55;;;2.50;99.90;;;;;;5074892;28;20024;-69
2023/01/24 08:35:45;;;;;;;36.47;18.85;;;2.40;99.90;;;;;;5086192;28;20056;-70
2023/01/24 08:38:12;;;;;;;30.80;19.27;;;2.50;99.90;;;;;;5055225;28;20109;-70
2023/01/24 08:40:38;;;;;;;33.65;19.73;;;2.50;99.90;;;;;;5070805;28;20044;-70
2023/01/24 08:43:03;;;;;;;35.20;18.23;;;2.50;99.90;;;;;;5066184;28;20055;-70
2023/01/24 08:45:29;;;;;;;32.38;18.33;;;2.50;99.90;;;;;;5060600;28;20531;-70
2023/01/24 08:47:55;;;;;;;32.78;19.65;;;2.50;99.90;;;;;;5064184;28;20067;-70
2023/01/24 08:50:21;;;;;;;30.15;18.10;;;2.60;99.90;;;;;;5090214;28;20071;-70
2023/01/24 08:52:47;;;;;;;35.33;19.88;;;2.60;99.90;;;;;;5074392;28;20035;-70
2023/01/24 08:55:13;;;;;;;30.08;18.80;;;2.60;99.90;;;;;;5074631;28;20021;-70
2023/01/24 08:57:38;;;;;;;31.10;18.98;;;2.70;99.90;;;;;;5055092;28;20080;-69
2023/01/24 09:00:05;;;;;;;29.30;18.45;;;2.70;99.90;;;;;;5054484;28;20040;-69
2023/01/24 09:02:32;;;;;;;30.50;21.38;;;2.70;99.90;;;;;;5054574;28;20491;-70
2023/01/24 09:04:58;;;;;;;31.55;19.55;;;2.70;99.90;;;;;;5054525;28;20099;-69
2023/01/24 09:07:24;;;;;;;33.33;20.83;;;2.70;99.90;;;;;;5054385;28;20106;-69
2023/01/24 09:09:49;;;;;;;28.83;17.88;;;2.70;99.90;;;;;;5054628;28;20032;-69
2023/01/24 09:12:15;;;;;;;29.00;17.10;;;2.70;99.90;;;;;;5054306;28;20033;-69
2023/01/24 09:14:40;;;;;;;32.08;19.02;;;2.70;99.90;;;;;;5054188;28;20111;-69
2023/01/24 09:17:06;;;;;;;27.10;17.35;;;2.70;99.90;;;;;;5054103;28;20033;-69
2023/01/24 09:19:31;;;;;;;26.00;16.40;;;2.70;99.90;;;;;;5053052;28;20025;-69
2023/01/24 09:21:57;;;;;;;25.45;15.90;;;2.60;99.90;;;;;;5054020;28;20113;-69
2023/01/24 09:24:24;;;;;;;29.92;18.30;;;2.60;99.90;;;;;;5054112;28;20032;-69
2023/01/24 09:26:50;;;;;;;38.00;24.02;;;2.70;99.90;;;;;;5044749;28;20432;-69
2023/01/24 09:29:15;;;;;;;36.40;20.55;;;2.70;99.90;;;;;;5034065;28;20026;-69
2023/01/24 09:31:41;;;;;;;31.65;18.25;;;2.60;99.90;;;;;;5051493;28;20024;-69
2023/01/24 09:34:06;;;;;;;31.42;19.65;;;2.70;99.90;;;;;;5053860;28;20082;-69
2023/01/24 09:36:33;;;;;;;32.97;20.35;;;2.80;99.90;;;;;;5060896;28;20021;-69
2023/01/24 09:38:58;;;;;;;33.55;23.02;;;2.80;99.90;;;;;;5074262;28;20025;-70
2023/01/24 09:41:53;;;;;;;28.58;19.77;;;2.80;99.90;;;;;;5073670;28;20031;-70
2023/01/24 09:44:28;;;;;;;30.55;21.60;;;2.80;99.90;;;;;;5073823;28;20031;-69
2023/01/24 09:46:55;;;;;;;25.33;15.02;;;2.80;99.90;;;;;;5060727;28;20480;-70
2023/01/24 09:49:32;;;;;;;21.95;13.65;;;2.90;99.90;;;;;;5054218;28;20115;-70
2023/01/24 09:51:59;;;;;;;23.80;16.10;;;2.90;99.90;;;;;;5053497;28;20032;-69
2023/01/24 09:54:46;;;;;;;28.27;17.02;;;2.80;99.90;;;;;;5053517;28;20071;-69
2023/01/24 09:57:22;;;;;;;25.83;15.27;;;2.90;99.90;;;;;;5045167;28;20099;-69
2023/01/24 09:59:52;;;;;;;26.85;17.98;;;2.90;99.90;;;;;;5038628;28;20029;-69
2023/01/24 10:02:20;;;;;;;28.33;17.20;;;2.90;99.90;;;;;;5073692;28;20025;-69
2023/01/24 10:04:47;;;;;;;22.27;15.68;;;2.90;99.90;;;;;;5073369;28;20027;-69
2023/01/24 10:07:30;;;;;;;22.48;13.50;;;2.90;99.90;;;;;;5057450;28;20052;-69
2023/01/24 10:10:14;;;;;;;30.10;18.70;;;3.00;99.90;;;;;;5053245;28;20036;-69
2023/01/24 10:12:57;;;;;;;24.23;15.98;;;3.00;99.90;;;;;;5053853;28;20259;-69
2023/01/24 10:15:45;;;;;;;27.90;17.60;;;3.00;99.90;;;;;;5053600;28;20523;-70
2023/01/24 10:18:49;;;;;;;31.13;19.63;;;3.00;99.90;;;;;;5033196;28;20025;-70
2023/01/24 10:21:59;;;;;;;30.48;18.33;;;3.00;99.90;;;;;;5031434;28;20044;-70
2023/01/24 10:24:30;;;;;;;27.15;18.02;;;2.90;99.90;;;;;;4972446;28;20027;-71
2023/01/24 10:26:56;;;;;;;26.10;16.20;;;2.90;99.90;;;;;;5039093;28;20112;-71
2023/01/24 10:29:36;;;;;;;22.55;14.85;;;2.90;99.90;;;;;;5054338;28;20033;-71
2023/01/24 10:32:16;;;;;;;26.40;15.60;;;2.90;99.90;;;;;;5072733;28;20020;-70
2023/01/24 10:34:47;;;;;;;21.25;14.25;;;3.00;99.90;;;;;;5088762;28;20048;-71
2023/01/24 10:37:23;;;;;;;20.20;14.30;;;3.00;99.90;;;;;;5058349;28;20067;-71
2023/01/24 10:39:48;;;;;;;25.95;15.02;;;3.00;99.90;;;;;;5053409;28;20488;-70
2023/01/24 10:42:23;;;;;;;23.35;14.07;;;3.10;99.90;;;;;;5053082;28;20029;-70
2023/01/24 10:44:50;;;;;;;20.23;12.00;;;3.10;99.90;;;;;;5068629;28;20021;-70
2023/01/24 10:47:40;;;;;;;27.88;12.27;;;3.00;99.90;;;;;;5052353;28;20086;-69
2023/01/24 10:50:18;;;;;;;22.85;14.15;;;2.90;99.90;;;;;;5053149;28;20475;-70
2023/01/24 10:52:46;;;;;;;24.15;15.25;;;2.90;99.90;;;;;;5053883;28;20044;-70
2023/01/24 10:55:26;;;;;;;23.38;12.80;;;2.90;99.90;;;;;;5053318;28;20062;-70
2023/01/24 10:57:52;;;;;;;19.73;13.70;;;3.00;99.90;;;;;;5052810;28;20032;-70
2023/01/24 11:00:22;;;;;;;18.30;11.95;;;3.10;99.90;;;;;;5053171;28;20033;-70
2023/01/24 11:02:54;;;;;;;25.67;14.73;;;3.10;99.90;;;;;;5053174;28;20035;-70
2023/01/24 11:05:21;;;;;;;23.30;15.73;;;3.10;99.90;;;;;;5053283;28;20385;-70
2023/01/24 11:07:49;;;;;;;25.48;15.35;;;3.10;99.90;;;;;;5052806;28;20029;-69
2023/01/24 11:10:24;;;;;;;22.25;15.13;;;3.10;99.90;;;;;;5052771;28;20431;-69
2023/01/24 11:12:56;;;;;;;20.33;14.13;;;3.10;99.90;;;;;;5053078;28;20052;-69
2023/01/24 11:15:26;;;;;;;26.67;15.13;;;3.10;99.90;;;;;;5053293;28;20029;-70
2023/01/24 11:18:10;;;;;;;23.15;15.93;;;3.10;99.90;;;;;;5052531;28;20032;-70
2023/01/24 11:20:36;;;;;;;24.65;15.98;;;3.20;99.90;;;;;;5053018;28;20018;-70
2023/01/24 11:23:17;;;;;;;23.20;15.57;;;3.30;99.90;;;;;;5052953;28;20025;-69
2023/01/24 11:25:55;;;;;;;25.92;15.88;;;3.30;99.90;;;;;;5052879;28;20072;-69
2023/01/24 11:28:27;;;;;;;20.73;13.75;;;3.30;99.90;;;;;;5052632;28;20059;-70
2023/01/24 11:30:54;;;;;;;16.80;10.68;;;3.30;99.90;;;;;;5046109;28;20033;-70
2023/01/24 11:33:25;;;;;;;18.77;12.80;;;3.20;99.90;;;;;;5044103;28;20036;-70
2023/01/24 11:35:56;;;;;;;26.25;16.83;;;3.10;99.90;;;;;;5047715;28;20112;-70
2023/01/24 11:38:34;;;;;;;25.90;15.98;;;3.20;99.90;;;;;;5047410;28;20025;-70
2023/01/24 11:41:10;;;;;;;27.13;16.75;;;3.20;99.90;;;;;;5041309;28;20108;-69
2023/01/24 11:44:05;;;;;;;23.17;16.02;;;3.30;99.90;;;;;;5045785;28;20021;-70
2023/01/24 11:46:49;;;;;;;27.35;16.42;;;3.20;99.90;;;;;;5048829;28;20025;-70
2023/01/24 11:49:36;;;;;;;;;;;3.30;99.90;;;;;;5044230;28;20025;-70
2023/01/24 11:52:13;;;;;;;28.90;17.85;;;3.30;99.90;;;;;;5042422;28;19999;-70
2023/01/24 11:54:44;;;;;;;27.10;15.35;;;3.40;99.90;;;;;;5049358;28;20032;-70
2023/01/24 11:57:34;;;;;;;21.38;14.88;;;3.40;99.90;;;;;;5051242;28;20040;-70
2023/01/24 12:00:22;;;;;;;18.92;13.43;;;3.30;99.90;;;;;;5043218;28;20480;-70
2023/01/24 12:03:13;;;;;;;29.27;15.38;;;3.30;99.90;;;;;;5071645;28;20110;-69
2023/01/24 12:06:06;;;;;;;24.65;15.52;;;3.30;99.90;;;;;;5075958;28;20025;-70
2023/01/24 12:08:50;;;;;;;19.87;11.20;;;3.20;99.90;;;;;;5064287;28;20380;-70
2023/01/24 12:11:43;;;;;;;15.93;10.73;;;3.20;99.90;;;;;;5075374;28;20376;-69
2023/01/24 12:14:21;;;;;;;18.48;11.57;;;3.20;99.90;;;;;;5055057;28;20021;-69
2023/01/24 12:17:07;;;;;;;19.60;13.10;;;3.30;99.90;;;;;;5075005;28;20020;-69
2023/01/24 12:19:55;;;;;;;18.83;12.75;;;3.20;99.90;;;;;;5071141;28;20024;-70
2023/01/24 12:22:24;;;;;;;26.77;17.52;;;3.30;99.90;;;;;;5075313;28;20028;-69
2023/01/24 12:25:03;;;;;;;25.58;16.27;;;3.30;99.90;;;;;;5061514;28;20091;-69
2023/01/24 12:27:34;;;;;;;22.08;14.20;;;3.30;99.90;;;;;;5075452;28;20032;-69
2023/01/24 12:30:13;;;;;;;26.10;16.83;;;3.20;99.90;;;;;;5074999;28;20452;-69
2023/01/24 12:33:00;;;;;;;33.08;17.48;;;3.20;99.90;;;;;;5075144;28;20103;-69
2023/01/24 12:35:35;;;;;;;26.33;16.83;;;3.30;99.90;;;;;;5073376;28;20545;-70
2023/01/24 12:38:38;;;;;;;28.73;16.27;;;3.30;99.90;;;;;;5070121;28;20064;-69
2023/01/24 12:41:30;;;;;;;23.92;15.27;;;3.40;99.90;;;;;;5054390;28;20074;-69
2023/01/24 12:44:25;;;;;;;21.88;13.52;;;3.30;99.90;;;;;;5033862;28;20534;-70
2023/01/24 12:46:54;;;;;;;25.00;15.88;;;3.30;99.90;;;;;;5035542;28;20079;-69
2023/01/24 12:49:26;;;;;;;27.05;15.82;;;3.20;99.90;;;;;;5049138;28;20025;-69
2023/01/24 12:51:56;;;;;;;28.42;17.05;;;3.20;99.90;;;;;;5292153;22;20064;-69
2023/01/24 13:12:31;;;;;;;26.08;18.33;;;3.30;99.90;;;;;;5884138;22;19928;-72
2023/01/24 13:14:59;;;;;;;27.70;16.05;;;3.30;99.90;;;;;;5054468;28;20017;-72
2023/01/24 13:17:31;;;;;;;26.58;14.27;;;3.40;99.90;;;;;;5054592;28;20446;-72
2023/01/24 13:20:11;;;;;;;24.25;14.95;;;3.30;99.90;;;;;;5054667;28;20021;-72
2023/01/24 13:22:57;;;;;;;25.83;17.00;;;3.30;99.90;;;;;;5054390;28;20075;-71
2023/01/24 13:25:23;;;;;;;28.35;17.20;;;3.30;99.90;;;;;;5054559;28;20354;-71
2023/01/24 13:28:17;;;;;;;27.40;16.80;;;3.20;99.90;;;;;;5054358;28;20025;-71
2023/01/24 13:30:55;;;;;;;55.53;25.52;;;3.20;99.90;;;;;;5035675;28;20044;-72
2023/01/24 13:33:46;;;;;;;37.28;22.40;;;3.20;99.90;;;;;;5054124;28;20052;-72
2023/01/24 13:36:16;;;;;;;36.25;20.70;;;3.20;99.90;;;;;;5054349;28;20025;-72
2023/01/24 13:38:43;;;;;;;34.20;20.23;;;3.10;99.90;;;;;;5053928;28;20488;-71
2023/01/24 13:41:16;;;;;;;33.85;22.27;;;3.20;99.90;;;;;;5054466;28;20421;-72
2023/01/24 13:44:00;;;;;;;;;;;3.10;99.90;;;;;;5054188;28;20043;-72
2023/01/24 13:46:44;;;;;;;25.38;17.83;;;3.10;99.90;;;;;;5054090;28;19958;-72
2023/01/24 13:49:27;;;;;;;28.45;18.10;;;3.20;99.90;;;;;;5053843;28;20445;-71
2023/01/24 13:51:57;;;;;;;24.20;15.88;;;3.10;99.90;;;;;;5054170;28;20028;-71